^ Back to Top

Niederschlagsradar DWD

© Deutscher Wetterdienst, Offenbach (DWD)

Aviation WX

[source: ADDS]
METAR
EDDN 262050Z 03001KT CAVOK 15/11 Q1019 =
TAF
TAF EDDN 261700Z 2618/2718 22005KT CAVOK TEMPO 2618/2707 VRB02KT BECMG 2708/2710 27010KT =
SR / SS: 03:12 / 19:25 UTC (ETHR 2016-06-26)